createdAt,value
2023-01-03T00:02:04.434Z,96389.38
2023-01-03T00:04:34.663Z,96389.66
2023-01-03T00:07:03.349Z,96391.77
2023-01-03T00:09:32.035Z,96397.47
2023-01-03T00:12:18.447Z,96392.50
2023-01-03T00:14:47.182Z,96395.56
2023-01-03T00:17:16.005Z,96390.41
2023-01-03T00:19:51.449Z,96388.94
2023-01-03T00:22:19.243Z,96392.39
2023-01-03T00:24:49.397Z,96390.26
2023-01-03T00:27:24.534Z,96390.55
2023-01-03T00:29:53.978Z,96386.48
2023-01-03T00:32:44.538Z,96390.33
2023-01-03T00:35:12.271Z,96388.82
2023-01-03T00:38:03.255Z,96394.13
2023-01-03T00:40:34.924Z,96394.53
2023-01-03T00:43:25.171Z,96390.55
2023-01-03T00:45:56.180Z,96393.75
2023-01-03T00:48:26.997Z,96390.55
2023-01-03T00:50:59.123Z,96387.39
2023-01-03T00:53:28.577Z,96380.61
2023-01-03T00:56:00.797Z,96387.05
2023-01-03T00:58:33.982Z,96386.14
2023-01-03T01:01:17.023Z,96387.52
2023-01-03T01:03:50.853Z,96382.09
2023-01-03T01:06:22.538Z,96381.55
2023-01-03T01:08:53.090Z,96379.17
2023-01-03T01:11:22.963Z,96380.56
2023-01-03T01:13:52.522Z,96387.67
2023-01-03T01:16:24.606Z,96379.55
2023-01-03T01:18:56.609Z,96377.20
2023-01-03T01:21:28.382Z,96374.45
2023-01-03T01:23:57.783Z,96375.96
2023-01-03T01:26:30.425Z,96372.59
2023-01-03T01:29:01.891Z,96373.67
2023-01-03T01:31:34.266Z,96376.62
2023-01-03T01:34:04.188Z,96370.27
2023-01-03T01:36:39.312Z,96368.50
2023-01-03T01:39:19.284Z,96368.75
2023-01-03T01:42:16.536Z,96372.16
2023-01-03T01:45:03.615Z,96367.23
2023-01-03T01:47:41.402Z,96365.25
2023-01-03T01:50:22.543Z,96367.10
2023-01-03T01:53:15.591Z,96361.06
2023-01-03T01:55:49.846Z,96361.59
2023-01-03T01:58:19.091Z,96356.75
2023-01-03T02:00:47.648Z,96356.47
2023-01-03T02:03:16.571Z,96359.30
2023-01-03T02:05:48.274Z,96359.01
2023-01-03T02:08:18.069Z,96362.13
2023-01-03T02:11:08.946Z,96363.48
2023-01-03T02:13:40.679Z,96356.02
2023-01-03T02:16:36.739Z,96356.52
2023-01-03T02:19:23.599Z,96358.36
2023-01-03T02:22:20.948Z,96348.34
2023-01-03T02:25:24.531Z,96357.49
2023-01-03T02:28:11.531Z,96355.98
2023-01-03T02:30:49.075Z,96352.48
2023-01-03T02:33:27.023Z,96352.85
2023-01-03T02:36:04.813Z,96346.62
2023-01-03T02:38:42.287Z,96348.70
2023-01-03T02:41:36.579Z,96357.03
2023-01-03T02:44:26.481Z,96351.24
2023-01-03T02:47:01.419Z,96347.88
2023-01-03T02:49:34.783Z,96350.85
2023-01-03T02:52:09.536Z,96349.96
2023-01-03T02:54:53.489Z,96350.67
2023-01-03T02:57:25.108Z,96347.80
2023-01-03T03:00:05.358Z,96351.00
2023-01-03T03:02:36.907Z,96353.94
2023-01-03T03:05:08.735Z,96347.34
2023-01-03T03:07:42.860Z,96345.49
2023-01-03T03:10:33.840Z,96347.66
2023-01-03T03:13:14.663Z,96347.91
2023-01-03T03:16:05.923Z,96346.59
2023-01-03T03:19:01.669Z,96351.10
2023-01-03T03:21:50.833Z,96346.34
2023-01-03T03:24:42.936Z,96337.69
2023-01-03T03:27:35.383Z,96342.66
2023-01-03T03:30:09.856Z,96338.64
2023-01-03T03:32:42.766Z,96339.42
2023-01-03T03:35:14.659Z,96346.41
2023-01-03T03:37:46.544Z,96345.17
2023-01-03T03:40:40.778Z,96351.02
2023-01-03T03:43:39.748Z,96349.17
2023-01-03T03:46:14.184Z,96345.55
2023-01-03T03:49:21.539Z,96348.73
2023-01-03T03:51:53.189Z,96357.70
2023-01-03T03:54:35.217Z,96348.88
2023-01-03T03:57:15.451Z,96353.29
2023-01-03T03:59:47.528Z,96352.67
2023-01-03T04:02:18.958Z,96350.41
2023-01-03T04:04:51.203Z,96352.25
2023-01-03T04:07:20.265Z,96342.34
2023-01-03T04:09:53.110Z,96351.20
2023-01-03T04:15:19.036Z,96345.66
2023-01-03T04:17:48.225Z,96342.82
2023-01-03T04:20:24.754Z,96347.48
2023-01-03T04:22:55.626Z,96347.03
2023-01-03T04:25:29.170Z,96345.95
2023-01-03T04:28:01.354Z,96353.81
2023-01-03T04:30:35.057Z,96352.28
2023-01-03T04:33:17.897Z,96352.59
2023-01-03T04:35:48.307Z,96354.73
2023-01-03T04:38:17.090Z,96349.73
2023-01-03T04:40:47.427Z,96356.31
2023-01-03T04:43:36.327Z,96357.63
2023-01-03T04:46:07.657Z,96365.25
2023-01-03T04:48:39.277Z,96366.56
2023-01-03T04:51:11.897Z,96376.03
2023-01-03T04:53:40.594Z,96377.38
2023-01-03T04:56:19.654Z,96378.36
2023-01-03T04:58:48.306Z,96376.82
2023-01-03T05:01:17.012Z,96380.24
2023-01-03T05:03:53.071Z,96380.29
2023-01-03T05:06:24.632Z,96381.02
2023-01-03T05:08:53.657Z,96371.45
2023-01-03T05:11:22.328Z,96389.56
2023-01-03T05:16:48.393Z,96387.72
2023-01-03T05:19:18.351Z,96390.88
2023-01-03T05:22:09.251Z,96388.45
2023-01-03T05:25:01.718Z,96390.53
2023-01-03T05:27:30.692Z,96393.95
2023-01-03T05:30:14.743Z,96395.28
2023-01-03T05:32:52.603Z,96394.28
2023-01-03T05:35:21.499Z,96391.92
2023-01-03T05:37:53.728Z,96392.91
2023-01-03T05:40:22.488Z,96387.38
2023-01-03T05:42:58.066Z,96389.20
2023-01-03T05:45:27.706Z,96386.85
2023-01-03T05:47:59.453Z,96387.70
2023-01-03T05:50:28.146Z,96389.04
2023-01-03T05:53:02.051Z,96391.66
2023-01-03T05:55:32.794Z,96395.86
2023-01-03T05:58:06.538Z,96388.98
2023-01-03T06:00:48.709Z,96398.67
2023-01-03T06:09:46.176Z,96407.12
2023-01-03T06:12:15.362Z,96406.34
2023-01-03T06:14:44.287Z,96411.81
2023-01-03T06:17:30.818Z,96418.36
2023-01-03T06:19:59.740Z,96417.82
2023-01-03T06:22:28.625Z,96423.11
2023-01-03T06:24:57.668Z,96423.92
2023-01-03T06:27:26.780Z,96428.05
2023-01-03T06:29:55.919Z,96426.22
2023-01-03T06:32:25.574Z,96425.16
2023-01-03T06:34:54.359Z,96416.42
2023-01-03T06:37:23.027Z,96412.99
2023-01-03T06:39:51.651Z,96410.66
2023-01-03T06:42:38.096Z,96412.27
2023-01-03T06:45:25.345Z,96417.49
2023-01-03T06:48:12.187Z,96424.58
2023-01-03T06:51:00.855Z,96423.52
2023-01-03T06:53:35.055Z,96428.77
2023-01-03T06:56:04.485Z,96435.60
2023-01-03T06:58:34.791Z,96435.36
2023-01-03T07:01:05.464Z,96439.04
2023-01-03T07:03:37.406Z,96441.91
2023-01-03T07:06:06.187Z,96450.84
2023-01-03T07:08:36.451Z,96451.39
2023-01-03T07:11:05.372Z,96449.80
2023-01-03T07:13:51.897Z,96451.31
2023-01-03T07:16:23.330Z,96441.82
2023-01-03T07:18:55.587Z,96449.70
2023-01-03T07:21:28.871Z,96452.05
2023-01-03T07:23:59.127Z,96463.55
2023-01-03T07:26:27.743Z,96463.30
2023-01-03T07:28:56.385Z,96460.88
2023-01-03T07:31:28.691Z,96463.64
2023-01-03T07:33:58.071Z,96463.81
2023-01-03T07:36:27.072Z,96464.21
2023-01-03T07:38:56.445Z,96466.44
2023-01-03T07:41:26.804Z,96460.30
2023-01-03T07:43:55.553Z,96462.92
2023-01-03T07:46:27.786Z,96463.46
2023-01-03T07:48:59.411Z,96465.98
2023-01-03T07:51:28.133Z,96469.84
2023-01-03T07:53:56.946Z,96469.13
2023-01-03T07:56:25.645Z,96463.54
2023-01-03T07:58:54.419Z,96459.11
2023-01-03T08:01:25.423Z,96463.08
2023-01-03T08:03:54.238Z,96462.84
2023-01-03T08:06:24.943Z,96458.09
2023-01-03T08:09:11.808Z,96465.64
2023-01-03T08:11:59.052Z,96463.20
2023-01-03T08:14:27.903Z,96469.34
2023-01-03T08:16:57.523Z,96464.45
2023-01-03T08:19:26.576Z,96465.31
2023-01-03T08:21:55.218Z,96452.55
2023-01-03T08:24:23.984Z,96467.30
2023-01-03T08:26:52.772Z,96471.79
2023-01-03T08:29:23.105Z,96467.66
2023-01-03T08:31:57.427Z,96462.33
2023-01-03T08:34:30.034Z,96465.80
2023-01-03T08:37:02.325Z,96466.48
2023-01-03T08:39:38.263Z,96465.28
2023-01-03T08:42:10.530Z,96467.84
2023-01-03T08:44:40.062Z,96471.31
2023-01-03T08:47:10.675Z,96470.58
2023-01-03T08:49:44.923Z,96465.52
2023-01-03T08:52:16.744Z,96464.95
2023-01-03T08:54:45.463Z,96462.81
2023-01-03T08:57:17.374Z,96462.81
2023-01-03T08:59:45.959Z,96460.17
2023-01-03T09:02:14.836Z,96456.57
2023-01-03T09:04:43.758Z,96458.52
2023-01-03T09:07:18.306Z,96455.81
2023-01-03T09:09:48.158Z,96441.63
2023-01-03T09:12:17.096Z,96441.63
2023-01-03T09:22:54.467Z,96437.33
2023-01-03T09:25:36.716Z,96430.33
2023-01-03T09:28:15.195Z,96434.91
2023-01-03T09:30:53.275Z,96423.42
2023-01-03T09:33:52.346Z,96389.16
2023-01-03T09:39:02.947Z,96421.39
2023-01-03T09:42:18.118Z,96409.48
2023-01-03T09:44:53.036Z,96407.66
2023-01-03T09:47:32.377Z,96401.20
2023-01-03T09:51:14.051Z,96393.59
2023-01-03T09:56:39.422Z,96386.56
2023-01-03T09:59:35.562Z,96379.06
2023-01-03T10:09:39.333Z,96371.03
2023-01-03T10:16:04.055Z,96359.39
2023-01-03T10:18:51.194Z,96351.66
2023-01-03T10:21:25.769Z,96353.14
2023-01-03T10:23:58.631Z,96352.03
2023-01-03T10:27:12.831Z,96349.25
2023-01-03T10:29:41.755Z,96342.17
2023-01-03T10:32:13.518Z,96335.06
2023-01-03T10:34:42.099Z,96331.81
2023-01-03T10:37:20.621Z,96322.13
2023-01-03T10:39:49.411Z,96321.05
2023-01-03T10:42:20.141Z,96309.58
2023-01-03T10:45:09.974Z,96314.34
2023-01-03T10:47:44.969Z,96317.30
2023-01-03T10:50:24.413Z,96311.46
2023-01-03T10:52:56.017Z,96309.42
2023-01-03T10:55:26.626Z,96303.25
2023-01-03T10:57:58.484Z,96291.39
2023-01-03T11:00:38.713Z,96286.03
2023-01-03T11:03:18.948Z,96285.44
2023-01-03T11:06:05.716Z,96292.03
2023-01-03T11:08:45.837Z,96281.37
2023-01-03T11:11:29.415Z,96278.28
2023-01-03T11:14:15.867Z,96278.05
2023-01-03T11:19:37.190Z,96263.55
2023-01-03T11:22:33.850Z,96252.87
2023-01-03T11:25:13.776Z,96259.18
2023-01-03T11:28:02.305Z,96247.44
2023-01-03T11:30:55.258Z,96247.92
2023-01-03T11:33:43.021Z,96241.88
2023-01-03T11:36:21.733Z,96241.99
2023-01-03T11:39:26.756Z,96230.29
2023-01-03T11:42:19.018Z,96223.04
2023-01-03T11:45:20.670Z,96223.90
2023-01-03T11:48:19.054Z,96220.08
2023-01-03T11:51:08.742Z,96215.35
2023-01-03T11:54:07.913Z,96211.01
2023-01-03T11:56:59.685Z,96207.72
2023-01-03T12:00:26.150Z,96203.29
2023-01-03T12:03:01.013Z,96200.84
2023-01-03T12:05:58.585Z,96203.52
2023-01-03T12:09:09.648Z,96201.64
2023-01-03T12:15:10.423Z,96197.97
2023-01-03T12:18:24.513Z,96193.55
2023-01-03T12:21:32.684Z,96189.98
2023-01-03T12:24:21.820Z,96180.66
2023-01-03T12:30:05.751Z,96183.95
2023-01-03T12:32:51.935Z,96187.88
2023-01-03T12:35:51.884Z,96180.80
2023-01-03T12:38:31.628Z,96180.78
2023-01-03T12:48:45.795Z,96179.36
2023-01-03T12:54:34.558Z,96177.06
2023-01-03T12:57:19.888Z,96176.05
2023-01-03T13:00:25.177Z,96168.14
2023-01-03T13:03:02.601Z,96171.58
2023-01-03T13:05:52.278Z,96172.34
2023-01-03T13:08:40.228Z,96169.47
2023-01-03T13:11:29.945Z,96177.06
2023-01-03T13:14:32.164Z,96178.01
2023-01-03T13:20:50.165Z,96175.30
2023-01-03T13:29:56.130Z,96170.27
2023-01-03T13:32:38.214Z,96165.10
2023-01-03T13:35:25.110Z,96168.50
2023-01-03T13:38:03.125Z,96161.33
2023-01-03T13:41:07.915Z,96167.17
2023-01-03T13:43:37.747Z,96158.55
2023-01-03T13:46:41.944Z,96165.59
2023-01-03T14:07:29.821Z,96158.78
2023-01-03T14:32:10.594Z,96159.67
2023-01-03T14:34:39.644Z,96167.02
2023-01-03T14:37:13.792Z,96161.69
2023-01-03T14:39:47.981Z,96161.66
2023-01-03T14:42:17.291Z,96170.40
2023-01-03T14:45:03.717Z,96165.19
2023-01-03T14:47:42.724Z,96167.98
2023-01-03T14:50:31.049Z,96168.97
2023-01-03T14:53:06.939Z,96165.19
2023-01-03T14:55:37.860Z,96167.02
2023-01-03T14:58:21.049Z,96165.52
2023-01-03T15:00:56.714Z,96171.41
2023-01-03T15:03:26.437Z,96168.84
2023-01-03T15:06:04.984Z,96172.84
2023-01-03T15:08:36.845Z,96166.10
2023-01-03T15:11:10.360Z,96179.36
2023-01-03T15:13:45.265Z,96173.68
2023-01-03T15:16:37.982Z,96174.66
2023-01-03T15:22:33.822Z,96181.89
2023-01-03T16:14:45.570Z,96201.95
2023-01-03T16:47:09.320Z,96204.72
2023-01-03T17:02:52.868Z,96247.25
2023-01-03T17:05:07.499Z,96250.39
2023-01-03T17:09:36.257Z,96244.91
2023-01-03T17:10:53.214Z,96247.61
2023-01-03T17:20:05.999Z,96247.00
2023-01-03T17:25:21.198Z,96246.69
2023-01-03T17:28:11.524Z,96249.98
2023-01-03T17:30:40.484Z,96253.81
2023-01-03T17:33:10.513Z,96255.98
2023-01-03T17:35:40.077Z,96256.30
2023-01-03T17:38:25.819Z,96257.38
2023-01-03T17:40:47.593Z,96259.84
2023-01-03T17:43:22.207Z,96253.81
2023-01-03T17:46:10.980Z,96255.58
2023-01-03T17:48:57.845Z,96253.19
2023-01-03T17:51:26.805Z,96259.95
2023-01-03T17:53:55.912Z,96262.60
2023-01-03T17:56:26.070Z,96263.16
2023-01-03T17:58:56.454Z,96261.14
2023-01-03T18:01:25.599Z,96262.58
2023-01-03T18:03:55.314Z,96256.69
2023-01-03T18:39:17.656Z,96277.34
2023-01-03T18:56:20.253Z,96287.73
2023-01-03T19:01:51.257Z,96286.64
2023-01-03T20:31:27.283Z,96294.34
2023-01-03T20:33:56.271Z,96287.92
2023-01-03T20:36:27.872Z,96292.25
2023-01-03T20:38:57.603Z,96282.34
2023-01-03T20:41:28.546Z,96298.75
2023-01-03T20:43:58.052Z,96300.39
2023-01-03T20:46:27.089Z,96294.22
2023-01-03T20:49:03.980Z,96294.13
2023-01-03T20:51:35.390Z,96291.14
2023-01-03T20:54:08.824Z,96289.80
2023-01-03T20:56:51.610Z,96290.02
2023-01-03T20:59:35.280Z,96290.47
2023-01-03T21:02:16.595Z,96288.59
2023-01-03T21:04:49.744Z,96296.81
2023-01-03T21:08:08.504Z,96285.81
2023-01-03T21:10:46.817Z,96250.42
2023-01-03T21:13:20.859Z,96291.66
2023-01-03T21:15:57.154Z,96287.00
2023-01-03T21:18:32.556Z,96294.97
2023-01-03T21:21:24.606Z,96288.70
2023-01-03T21:23:59.890Z,96287.78
2023-01-03T21:26:30.852Z,96290.25
2023-01-03T21:29:10.505Z,96298.55
2023-01-03T21:31:52.729Z,96297.22
2023-01-03T21:34:44.724Z,96292.27
2023-01-03T21:46:59.834Z,96300.58
2023-01-03T21:49:28.731Z,96299.25
2023-01-03T21:51:57.977Z,96299.31
2023-01-03T21:54:26.800Z,96309.22
2023-01-03T21:56:55.577Z,96303.36
2023-01-03T21:59:24.368Z,96308.04
2023-01-03T22:02:10.785Z,96308.30
2023-01-03T22:04:39.764Z,96308.36
2023-01-03T22:07:09.908Z,96300.61
2023-01-03T22:09:56.632Z,96308.54
2023-01-03T22:12:27.305Z,96305.88
2023-01-03T22:14:56.389Z,96305.37
2023-01-03T22:17:26.645Z,96310.92
2023-01-03T22:19:59.352Z,96312.06
2023-01-03T22:22:28.958Z,96310.66
2023-01-03T22:24:57.483Z,96310.51
2023-01-03T22:27:28.907Z,96307.73
2023-01-03T22:29:57.549Z,96299.70
2023-01-03T22:32:27.450Z,96302.59
2023-01-03T22:34:57.592Z,96305.84
2023-01-03T22:37:26.860Z,96298.52
2023-01-03T22:39:55.894Z,96296.56
2023-01-03T22:42:27.681Z,96297.13
2023-01-03T22:44:56.625Z,96296.28
2023-01-03T22:47:25.595Z,96295.52
2023-01-03T22:49:54.554Z,96298.89
2023-01-03T22:52:23.943Z,96295.53
2023-01-03T22:54:53.058Z,96293.25
2023-01-03T22:57:23.860Z,96299.39
2023-01-03T22:59:53.025Z,96296.28
2023-01-03T23:02:27.912Z,96297.28
2023-01-03T23:04:52.766Z,96297.84
2023-01-03T23:07:21.751Z,96293.80
2023-01-03T23:09:50.527Z,96295.08
2023-01-03T23:12:37.117Z,96293.10
2023-01-03T23:15:06.388Z,96293.91
2023-01-03T23:17:52.923Z,96290.88
2023-01-03T23:20:21.594Z,96290.77
2023-01-03T23:22:55.615Z,96290.09
2023-01-03T23:25:20.950Z,96290.22
2023-01-03T23:27:50.194Z,96291.48
2023-01-03T23:30:22.255Z,96287.57
2023-01-03T23:32:51.037Z,96291.33
2023-01-03T23:35:19.711Z,96284.57
2023-01-03T23:37:48.497Z,96287.22
2023-01-03T23:40:17.205Z,96284.14
2023-01-03T23:42:45.911Z,96284.39
2023-01-03T23:45:14.662Z,96282.84
2023-01-03T23:47:43.361Z,96289.14
2023-01-03T23:50:12.167Z,96283.97
2023-01-03T23:52:40.811Z,96286.34
2023-01-03T23:55:12.555Z,96285.39
2023-01-03T23:57:40.205Z,96283.23
